CheckWX is a tool to help pilots better visualize weather data.  It is not intended as a substitute for an official pre-flight weather briefing.

23:08:38 UTC

I63 METAR
Mount Sterling Municipal Airport
Mount Sterling, Illinois, USA
Current

34 mins ago

KI63 242235Z AUTO 20011G14KT 10SM BKN048 BKN060 30/22 A2992 RMK AO2 T03030220
Observed
May-24 @ 22:35 UTC
Wind
  • 200° at 11 KTS
  • Gusting to 14 KTS
Visibility
10 SM
Flight Rules
VFR
Cloud Levels
  • Broken at 4,800' AGL
  • Broken at 6,000' AGL
Temperature
30°C / 86°F
Dewpoint
22°C / 72°F
Heat Index
33°C / 92°F
Humidity
62%
Altimeter
29.92" Hg
Pressure
1013.22 hPa
Previous

54 mins ago

KI63 242215Z AUTO 20010KT 10SM SCT048 30/22 A2992 RMK AO2 T03020220
Observed
May-24 @ 22:15 UTC
Wind
  • 200° at 10 KTS
Visibility
10 SM
Flight Rules
VFR
Cloud Levels
  • Scattered at 4,800' AGL
Temperature
30°C / 86°F
Dewpoint
22°C / 72°F
Heat Index
33°C / 92°F
Humidity
62%
Altimeter
29.92" Hg
Pressure
1013.22 hPa
Previous

1 hour ago

KI63 242155Z AUTO 19014G18KT 10SM SCT041 SCT048 30/22 A2992 RMK AO2 T02950218
Observed
May-24 @ 21:55 UTC
Wind
  • 190° at 14 KTS
  • Gusting to 18 KTS
Visibility
10 SM
Flight Rules
VFR
Cloud Levels
  • Scattered at 4,100' AGL
  • Scattered at 4,800' AGL
Temperature
30°C / 86°F
Dewpoint
22°C / 72°F
Heat Index
33°C / 92°F
Humidity
62%
Altimeter
29.92" Hg
Pressure
1013.22 hPa